createdAt,value
2022-12-13T00:00:14.871Z,11.52
2022-12-13T00:02:41.054Z,12.00
2022-12-13T00:05:07.216Z,11.63
2022-12-13T00:07:33.337Z,15.73
2022-12-13T00:09:59.460Z,11.75
2022-12-13T00:12:25.562Z,11.07
2022-12-13T00:14:51.680Z,14.73
2022-12-13T00:17:17.916Z,11.82
2022-12-13T00:19:44.329Z,10.27
2022-12-13T00:22:10.482Z,12.38
2022-12-13T00:24:39.092Z,12.13
2022-12-13T00:27:09.031Z,12.60
2022-12-13T00:29:35.152Z,11.13
2022-12-13T00:32:01.552Z,13.88
2022-12-13T00:34:27.859Z,11.52
2022-12-13T00:36:53.997Z,10.63
2022-12-13T00:39:20.093Z,12.68
2022-12-13T00:41:46.222Z,13.60
2022-12-13T00:44:12.320Z,12.40
2022-12-13T00:46:38.441Z,15.07
2022-12-13T00:49:04.554Z,14.02
2022-12-13T00:51:30.680Z,11.25
2022-12-13T00:53:56.774Z,14.35
2022-12-13T00:56:22.920Z,8.98
2022-12-13T00:58:52.052Z,11.20
2022-12-13T01:01:18.619Z,10.07
2022-12-13T01:03:44.902Z,11.60
2022-12-13T01:06:15.650Z,13.02
2022-12-13T01:08:42.440Z,12.25
2022-12-13T01:11:08.581Z,11.57
2022-12-13T01:13:34.721Z,12.38
2022-12-13T01:16:00.859Z,12.43
2022-12-13T01:18:26.977Z,13.43
2022-12-13T01:20:53.072Z,10.05
2022-12-13T01:23:19.220Z,10.98
2022-12-13T01:25:45.314Z,11.57
2022-12-13T01:28:11.419Z,11.40
2022-12-13T01:30:37.682Z,10.00
2022-12-13T01:33:14.240Z,9.30
2022-12-13T01:35:40.773Z,13.48
2022-12-13T01:38:15.818Z,13.38
2022-12-13T01:40:42.331Z,10.52
2022-12-13T01:43:14.497Z,10.30
2022-12-13T01:45:41.123Z,11.40
2022-12-13T01:48:07.252Z,11.02
2022-12-13T01:50:33.347Z,19.00
2022-12-13T01:53:00.172Z,8.10
2022-12-13T01:55:26.763Z,11.77
2022-12-13T01:57:52.902Z,11.27
2022-12-13T02:00:18.994Z,10.00
2022-12-13T02:02:45.146Z,14.52
2022-12-13T02:05:11.316Z,12.88
2022-12-13T02:07:37.516Z,10.85
2022-12-13T02:10:03.616Z,13.48
2022-12-13T02:12:30.345Z,13.32
2022-12-13T02:14:56.684Z,9.48
2022-12-13T02:17:26.939Z,9.38
2022-12-13T02:19:53.047Z,12.30
2022-12-13T02:22:19.188Z,12.30
2022-12-13T02:24:45.307Z,9.27
2022-12-13T02:27:11.466Z,20.70
2022-12-13T02:29:37.614Z,16.50
2022-12-13T02:32:03.709Z,13.48
2022-12-13T02:34:29.837Z,9.57
2022-12-13T02:37:00.268Z,14.48
2022-12-13T02:39:30.234Z,11.40
2022-12-13T02:41:57.047Z,18.52
2022-12-13T02:44:23.424Z,13.23
2022-12-13T02:46:49.595Z,10.98
2022-12-13T02:49:15.724Z,12.32
2022-12-13T02:51:41.825Z,12.30
2022-12-13T02:54:08.070Z,13.95
2022-12-13T02:56:34.181Z,11.77
2022-12-13T02:59:00.285Z,13.75
2022-12-13T03:01:27.854Z,12.13
2022-12-13T03:03:55.693Z,13.02
2022-12-13T03:06:33.452Z,14.82
2022-12-13T03:09:00.523Z,10.35
2022-12-13T03:11:26.892Z,12.10
2022-12-13T03:13:53.036Z,12.25
2022-12-13T03:16:22.869Z,10.27
2022-12-13T03:18:49.554Z,12.50
2022-12-13T03:21:16.436Z,13.82
2022-12-13T03:23:42.559Z,20.08
2022-12-13T03:26:08.693Z,11.38
2022-12-13T03:28:34.836Z,13.70
2022-12-13T03:31:01.017Z,12.18
2022-12-13T03:33:27.140Z,13.25
2022-12-13T03:35:53.244Z,13.57
2022-12-13T03:38:21.390Z,12.82
2022-12-13T03:40:48.842Z,14.32
2022-12-13T03:43:14.966Z,15.25
2022-12-13T03:45:48.640Z,15.65
2022-12-13T03:48:14.814Z,14.18
2022-12-13T03:50:48.984Z,10.85
2022-12-13T03:53:22.751Z,13.65
2022-12-13T03:55:58.999Z,18.98
2022-12-13T03:58:27.172Z,13.05
2022-12-13T04:01:02.840Z,11.93
2022-12-13T04:03:29.011Z,11.68
2022-12-13T04:05:55.175Z,12.13
2022-12-13T04:08:21.797Z,17.27
2022-12-13T04:10:48.699Z,16.13
2022-12-13T04:13:14.823Z,18.38
2022-12-13T04:15:40.936Z,19.13
2022-12-13T04:18:07.059Z,10.93
2022-12-13T04:20:33.169Z,12.57
2022-12-13T04:22:59.306Z,17.38
2022-12-13T04:25:25.411Z,13.68
2022-12-13T04:27:51.513Z,13.88
2022-12-13T04:30:17.642Z,16.92
2022-12-13T04:32:43.824Z,15.32
2022-12-13T04:35:09.943Z,15.57
2022-12-13T04:37:36.048Z,12.50
2022-12-13T04:40:02.169Z,13.10
2022-12-13T04:42:28.381Z,13.52
2022-12-13T04:44:54.508Z,13.00
2022-12-13T04:47:20.655Z,18.25
2022-12-13T04:49:46.769Z,14.75
2022-12-13T04:52:12.872Z,12.77
2022-12-13T04:54:48.396Z,17.63
2022-12-13T04:57:22.104Z,13.05
2022-12-13T04:59:48.793Z,11.88
2022-12-13T05:02:14.906Z,15.75
2022-12-13T05:04:53.798Z,12.48
2022-12-13T05:07:20.202Z,12.90
2022-12-13T05:09:46.308Z,12.32
2022-12-13T05:12:21.848Z,17.30
2022-12-13T05:14:49.077Z,12.45
2022-12-13T05:17:15.172Z,12.05
2022-12-13T05:19:41.281Z,13.48
2022-12-13T05:22:07.385Z,11.60
2022-12-13T05:24:33.565Z,12.68
2022-12-13T05:26:59.738Z,9.30
2022-12-13T05:29:25.849Z,15.38
2022-12-13T05:31:52.051Z,12.35
2022-12-13T05:34:18.200Z,12.00
2022-12-13T05:36:44.323Z,14.35
2022-12-13T05:39:28.915Z,12.85
2022-12-13T05:41:55.915Z,10.93
2022-12-13T05:44:28.274Z,12.18
2022-12-13T05:46:54.381Z,12.55
2022-12-13T05:49:20.491Z,22.23
2022-12-13T05:51:46.621Z,17.42
2022-12-13T05:54:12.727Z,10.48
2022-12-13T05:56:38.870Z,13.77
2022-12-13T05:59:05.059Z,11.75
2022-12-13T06:01:31.205Z,11.25
2022-12-13T06:03:57.345Z,12.20
2022-12-13T06:06:23.499Z,13.25
2022-12-13T06:08:49.657Z,10.55
2022-12-13T06:11:31.576Z,12.35
2022-12-13T06:14:00.782Z,11.13
2022-12-13T06:16:27.566Z,12.98
2022-12-13T06:19:01.266Z,9.05
2022-12-13T06:21:40.669Z,10.15
2022-12-13T06:24:11.694Z,10.40
2022-12-13T06:26:37.820Z,9.93
2022-12-13T06:29:03.940Z,10.50
2022-12-13T06:31:30.047Z,14.07
2022-12-13T06:33:56.181Z,10.20
2022-12-13T06:36:22.283Z,12.85
2022-12-13T06:38:48.515Z,10.50
2022-12-13T06:41:14.623Z,13.75
2022-12-13T06:43:40.733Z,13.35
2022-12-13T06:46:06.892Z,13.43
2022-12-13T06:48:35.392Z,11.20
2022-12-13T06:51:01.532Z,13.07
2022-12-13T06:53:27.654Z,11.60
2022-12-13T06:55:53.764Z,15.75
2022-12-13T06:58:19.886Z,10.60
2022-12-13T07:00:48.857Z,9.15
2022-12-13T07:03:15.683Z,11.10
2022-12-13T07:05:43.131Z,12.70
2022-12-13T07:08:09.595Z,12.65
2022-12-13T07:10:35.736Z,12.70
2022-12-13T07:13:01.843Z,9.32
2022-12-13T07:15:27.992Z,13.02
2022-12-13T07:17:54.132Z,10.15
2022-12-13T07:20:20.241Z,10.98
2022-12-13T07:22:49.197Z,10.93
2022-12-13T07:25:27.782Z,11.52
2022-12-13T07:27:55.529Z,11.77
2022-12-13T07:30:28.053Z,9.32
2022-12-13T07:32:54.163Z,14.60
2022-12-13T07:35:20.309Z,14.70
2022-12-13T07:37:46.446Z,11.10
2022-12-13T07:40:12.570Z,15.50
2022-12-13T07:42:38.668Z,16.73
2022-12-13T07:45:04.821Z,11.35
2022-12-13T07:47:30.945Z,12.57
2022-12-13T07:49:57.110Z,12.27
2022-12-13T07:52:23.259Z,17.83
2022-12-13T07:54:49.431Z,12.07
2022-12-13T07:57:15.545Z,15.57
2022-12-13T07:59:41.667Z,14.30
2022-12-13T08:02:07.794Z,11.15
2022-12-13T08:04:37.677Z,13.57
2022-12-13T08:07:04.567Z,14.05
2022-12-13T08:09:30.682Z,11.95
2022-12-13T08:11:56.802Z,13.80
2022-12-13T08:14:27.362Z,12.32
2022-12-13T08:16:53.555Z,13.98
2022-12-13T08:19:19.677Z,16.13
2022-12-13T08:21:54.604Z,13.52
2022-12-13T08:24:21.638Z,14.90
2022-12-13T08:26:47.769Z,13.43
2022-12-13T08:29:13.900Z,11.40
2022-12-13T08:31:49.833Z,18.00
2022-12-13T08:34:15.981Z,12.43
2022-12-13T08:36:42.162Z,19.42
2022-12-13T08:39:08.265Z,17.95
2022-12-13T08:41:38.924Z,11.88
2022-12-13T08:44:05.490Z,15.98
2022-12-13T08:46:31.663Z,14.38
2022-12-13T08:48:57.867Z,12.63
2022-12-13T08:51:25.764Z,11.80
2022-12-13T08:53:54.484Z,18.80
2022-12-13T08:56:37.522Z,17.63
2022-12-13T08:59:03.626Z,15.63
2022-12-13T09:01:29.772Z,14.43
2022-12-13T09:03:55.882Z,24.83
2022-12-13T09:06:22.030Z,18.52
2022-12-13T09:08:51.871Z,14.68
2022-12-13T09:11:23.777Z,13.30
2022-12-13T09:14:02.795Z,14.25
2022-12-13T09:16:29.015Z,14.45
2022-12-13T09:19:06.629Z,13.17
2022-12-13T09:21:48.073Z,15.25
2022-12-13T09:24:24.170Z,17.13
2022-12-13T09:26:50.930Z,13.40
2022-12-13T09:29:23.531Z,10.77
2022-12-13T09:31:53.046Z,19.27
2022-12-13T09:34:19.685Z,17.23
2022-12-13T09:36:45.814Z,21.20
2022-12-13T09:39:11.939Z,17.85
2022-12-13T09:41:40.962Z,13.30
2022-12-13T09:44:07.553Z,18.70
2022-12-13T09:46:53.682Z,11.02
2022-12-13T09:49:27.137Z,17.33
2022-12-13T09:52:10.873Z,18.02
2022-12-13T09:54:44.815Z,12.93
2022-12-13T09:57:14.157Z,12.98
2022-12-13T10:00:01.146Z,18.95
2022-12-13T10:02:28.248Z,16.30
2022-12-13T10:04:54.393Z,17.55
2022-12-13T10:07:27.404Z,17.55
2022-12-13T10:09:53.566Z,19.85
2022-12-13T10:12:19.661Z,16.45
2022-12-13T10:14:45.792Z,19.63
2022-12-13T10:17:11.923Z,10.65
2022-12-13T10:19:38.078Z,15.77
2022-12-13T10:22:04.227Z,17.67
2022-12-13T10:24:36.322Z,15.00
2022-12-13T10:27:03.303Z,23.83
2022-12-13T10:29:30.083Z,19.15
2022-12-13T10:31:56.257Z,13.77
2022-12-13T10:34:22.413Z,12.88
2022-12-13T10:36:48.555Z,12.77
2022-12-13T10:39:14.682Z,11.43
2022-12-13T10:41:40.808Z,14.57
2022-12-13T10:44:06.912Z,13.02
2022-12-13T10:46:38.482Z,10.70
2022-12-13T10:49:05.122Z,11.68
2022-12-13T10:51:31.238Z,11.45
2022-12-13T10:53:57.396Z,12.88
2022-12-13T10:56:24.012Z,11.32
2022-12-13T10:58:50.210Z,13.80
2022-12-13T11:01:17.965Z,14.18
2022-12-13T11:03:44.129Z,15.63
2022-12-13T11:06:10.274Z,18.02
2022-12-13T11:08:36.391Z,15.63
2022-12-13T11:11:02.512Z,12.00
2022-12-13T11:13:28.656Z,13.88
2022-12-13T11:15:54.789Z,17.10
2022-12-13T11:18:21.154Z,18.77
2022-12-13T11:20:52.717Z,12.43
2022-12-13T11:23:20.333Z,11.80
2022-12-13T11:25:46.450Z,14.98
2022-12-13T11:28:25.800Z,21.02
2022-12-13T11:31:01.403Z,13.00
2022-12-13T11:33:27.853Z,20.77
2022-12-13T11:35:53.973Z,16.95
2022-12-13T11:38:20.117Z,16.90
2022-12-13T11:40:46.259Z,11.98
2022-12-13T11:43:12.469Z,14.70
2022-12-13T11:45:38.656Z,14.35
2022-12-13T11:48:04.862Z,15.20
2022-12-13T11:50:33.764Z,16.55
2022-12-13T11:53:00.346Z,20.83
2022-12-13T11:55:27.222Z,19.13
2022-12-13T11:57:53.350Z,19.33
2022-12-13T12:00:33.692Z,33.58
2022-12-13T12:03:00.941Z,25.23
2022-12-13T12:05:27.118Z,17.45
2022-12-13T12:08:31.325Z,21.25
2022-12-13T12:10:41.804Z,37.40
2022-12-13T12:13:11.911Z,26.67
2022-12-13T12:15:42.085Z,27.98
2022-12-13T12:18:08.513Z,21.85
2022-12-13T12:20:34.755Z,17.15
2022-12-13T12:23:00.921Z,30.77
2022-12-13T12:25:27.029Z,27.92
2022-12-13T12:27:53.153Z,20.73
2022-12-13T12:30:23.064Z,23.77
2022-12-13T12:32:50.044Z,21.13
2022-12-13T12:35:16.139Z,40.45
2022-12-13T12:37:42.265Z,21.88
2022-12-13T12:40:08.435Z,21.67
2022-12-13T12:42:50.237Z,19.42
2022-12-13T12:45:54.619Z,20.17
2022-12-13T12:48:49.046Z,20.08
2022-12-13T12:50:52.869Z,28.25
2022-12-13T12:53:19.025Z,42.45
2022-12-13T12:55:45.125Z,23.25
2022-12-13T12:58:11.262Z,18.42
2022-12-13T13:00:37.401Z,18.13
2022-12-13T13:03:07.953Z,20.40
2022-12-13T13:05:38.348Z,28.17
2022-12-13T13:08:04.465Z,33.13
2022-12-13T13:10:30.723Z,24.58
2022-12-13T13:13:11.389Z,19.73
2022-12-13T13:15:39.308Z,24.73
2022-12-13T13:18:05.467Z,18.58
2022-12-13T13:20:31.664Z,21.92
2022-12-13T13:23:31.900Z,18.13
2022-12-13T13:26:07.817Z,23.75
2022-12-13T13:28:30.072Z,37.85
2022-12-13T13:30:56.254Z,22.17
2022-12-13T13:33:26.977Z,26.30
2022-12-13T13:35:53.313Z,20.08
2022-12-13T13:38:19.507Z,17.30
2022-12-13T13:40:45.616Z,18.40
2022-12-13T13:43:11.754Z,33.10
2022-12-13T13:45:37.896Z,17.35
2022-12-13T13:48:04.201Z,17.73
2022-12-13T13:50:40.874Z,27.65
2022-12-13T13:53:06.996Z,25.73
2022-12-13T13:55:33.101Z,23.95
2022-12-13T13:58:21.841Z,16.33
2022-12-13T14:00:45.336Z,21.23
2022-12-13T14:03:33.461Z,22.58
2022-12-13T14:05:57.669Z,25.10
2022-12-13T14:08:23.797Z,20.00
2022-12-13T14:10:49.922Z,20.17
2022-12-13T14:13:16.291Z,19.83
2022-12-13T14:15:42.461Z,23.67
2022-12-13T14:18:21.479Z,25.43
2022-12-13T14:20:48.035Z,23.70
2022-12-13T14:23:14.209Z,30.92
2022-12-13T14:28:18.806Z,21.33
2022-12-13T14:30:47.838Z,20.77
2022-12-13T14:33:23.374Z,22.05
2022-12-13T14:35:49.746Z,23.63
2022-12-13T14:38:15.866Z,25.40
2022-12-13T14:40:42.012Z,20.27
2022-12-13T14:43:08.143Z,21.17
2022-12-13T14:45:34.263Z,25.65
2022-12-13T14:48:00.372Z,16.98
2022-12-13T14:50:26.615Z,13.63
2022-12-13T14:52:52.750Z,20.25
2022-12-13T14:55:18.882Z,20.17
2022-12-13T14:57:44.982Z,14.48
2022-12-13T15:00:11.123Z,18.88
2022-12-13T15:02:37.230Z,17.50
2022-12-13T15:05:03.481Z,13.18
2022-12-13T15:07:29.631Z,16.88
2022-12-13T15:09:55.782Z,12.40
2022-12-13T15:12:24.701Z,16.13
2022-12-13T15:14:51.788Z,21.65
2022-12-13T15:17:17.928Z,15.30
2022-12-13T15:19:48.729Z,12.20
2022-12-13T15:22:15.231Z,18.27
2022-12-13T15:24:41.369Z,13.80
2022-12-13T15:27:07.504Z,17.30
2022-12-13T15:29:35.452Z,15.38
2022-12-13T15:32:01.780Z,17.58
2022-12-13T15:34:29.078Z,16.10
2022-12-13T15:36:56.236Z,21.17
2022-12-13T15:39:22.340Z,16.65
2022-12-13T15:41:48.462Z,22.73
2022-12-13T15:44:14.559Z,18.45
2022-12-13T15:46:40.679Z,15.32
2022-12-13T15:49:06.779Z,19.60
2022-12-13T15:51:32.912Z,18.33
2022-12-13T15:53:59.097Z,18.02
2022-12-13T15:56:26.946Z,25.73
2022-12-13T15:58:53.065Z,18.58
2022-12-13T16:01:19.197Z,20.33
2022-12-13T16:03:45.460Z,44.53
2022-12-13T16:06:11.625Z,18.90
2022-12-13T16:08:37.784Z,18.02
2022-12-13T16:11:03.902Z,20.10
2022-12-13T16:13:30.495Z,23.42
2022-12-13T16:16:00.265Z,22.00
2022-12-13T16:18:35.805Z,20.95
2022-12-13T16:21:01.923Z,17.45
2022-12-13T16:23:28.175Z,20.25
2022-12-13T16:25:54.383Z,18.52
2022-12-13T16:28:20.516Z,19.38
2022-12-13T16:30:52.389Z,18.50
2022-12-13T16:33:26.688Z,19.98
2022-12-13T16:35:53.824Z,24.25
2022-12-13T16:38:26.492Z,21.38
2022-12-13T16:40:53.171Z,19.23
2022-12-13T16:43:19.304Z,22.92
2022-12-13T16:45:45.435Z,21.67
2022-12-13T16:48:11.675Z,24.55
2022-12-13T16:50:37.866Z,21.13
2022-12-13T16:53:03.983Z,27.00
2022-12-13T16:55:30.104Z,23.30
2022-12-13T16:57:56.217Z,24.38
2022-12-13T17:00:22.362Z,27.77
2022-12-13T17:02:48.505Z,21.52
2022-12-13T17:05:14.672Z,30.17
2022-12-13T17:07:40.769Z,23.83
2022-12-13T17:10:06.905Z,23.08
2022-12-13T17:12:33.026Z,24.77
2022-12-13T17:14:59.153Z,26.38
2022-12-13T17:17:25.270Z,23.52
2022-12-13T17:19:51.438Z,28.23
2022-12-13T17:22:17.585Z,23.15
2022-12-13T17:24:43.715Z,25.60
2022-12-13T17:27:09.816Z,28.05
2022-12-13T17:29:35.933Z,26.08
2022-12-13T17:32:02.031Z,27.02
2022-12-13T17:34:28.173Z,22.63
2022-12-13T17:36:54.284Z,28.05
2022-12-13T17:39:20.429Z,24.98
2022-12-13T17:41:54.650Z,20.85
2022-12-13T17:44:21.882Z,32.47
2022-12-13T17:46:54.543Z,25.23
2022-12-13T17:49:21.600Z,24.08
2022-12-13T17:51:51.541Z,24.50
2022-12-13T17:54:18.018Z,23.27
2022-12-13T17:56:44.143Z,30.52
2022-12-13T17:59:11.348Z,24.52
2022-12-13T18:01:37.502Z,24.55
2022-12-13T18:04:03.608Z,30.90
2022-12-13T18:06:29.760Z,23.65
2022-12-13T18:08:55.874Z,23.67
2022-12-13T18:11:37.348Z,28.98
2022-12-13T18:14:03.474Z,23.20
2022-12-13T18:16:36.193Z,28.73
2022-12-13T18:19:03.297Z,24.30
2022-12-13T18:21:29.461Z,27.08
2022-12-13T18:23:56.287Z,22.58
2022-12-13T18:26:22.563Z,26.92
2022-12-13T18:28:48.668Z,36.65
2022-12-13T18:31:14.852Z,22.42
2022-12-13T18:33:44.527Z,27.15
2022-12-13T18:36:13.474Z,24.40
2022-12-13T18:38:39.922Z,26.70
2022-12-13T18:41:06.069Z,23.60
2022-12-13T18:43:32.192Z,27.70
2022-12-13T18:45:58.329Z,27.45
2022-12-13T18:48:24.930Z,22.08
2022-12-13T18:50:51.239Z,29.75
2022-12-13T18:53:17.355Z,24.27
2022-12-13T18:55:43.473Z,23.75
2022-12-13T18:58:09.616Z,30.83
2022-12-13T19:00:35.714Z,21.52
2022-12-13T19:03:01.892Z,20.15
2022-12-13T19:05:28.042Z,22.08
2022-12-13T19:07:54.164Z,24.05
2022-12-13T19:10:20.296Z,17.50
2022-12-13T19:12:46.427Z,24.45
2022-12-13T19:15:12.582Z,16.77
2022-12-13T19:17:38.713Z,22.55
2022-12-13T19:20:04.904Z,24.58
2022-12-13T19:22:31.104Z,25.65
2022-12-13T19:24:57.216Z,18.50
2022-12-13T19:27:23.313Z,27.90
2022-12-13T19:29:49.470Z,22.67
2022-12-13T19:32:15.610Z,18.80
2022-12-13T19:34:41.785Z,20.77
2022-12-13T19:37:07.947Z,19.80
2022-12-13T19:39:34.070Z,19.08
2022-12-13T19:42:00.206Z,23.25
2022-12-13T19:44:26.386Z,18.15
2022-12-13T19:46:53.599Z,22.08
2022-12-13T19:49:19.891Z,22.30
2022-12-13T19:51:46.011Z,24.70
2022-12-13T19:54:12.260Z,19.77
2022-12-13T19:56:38.418Z,17.67
2022-12-13T19:59:04.573Z,16.08
2022-12-13T20:01:30.783Z,16.30
2022-12-13T20:03:57.055Z,18.27
2022-12-13T20:06:23.148Z,16.63
2022-12-13T20:08:49.369Z,14.98
2022-12-13T20:11:15.539Z,17.98
2022-12-13T20:13:41.757Z,16.50
2022-12-13T20:16:08.042Z,17.15
2022-12-13T20:18:34.284Z,14.68
2022-12-13T20:21:11.522Z,13.35
2022-12-13T20:23:38.806Z,16.73
2022-12-13T20:26:05.981Z,16.45
2022-12-13T20:28:33.330Z,16.95
2022-12-13T20:41:45.681Z,13.88
2022-12-13T20:46:53.140Z,19.45
2022-12-13T20:49:19.877Z,12.77
2022-12-13T21:02:30.533Z,23.77
2022-12-13T21:26:20.241Z,14.48
2022-12-13T21:31:40.512Z,13.45
2022-12-13T21:34:06.690Z,17.02
2022-12-13T21:36:32.797Z,13.93
2022-12-13T21:38:58.935Z,14.02
2022-12-13T21:41:25.093Z,14.52
2022-12-13T21:43:51.222Z,12.73
2022-12-13T21:46:17.330Z,13.40
2022-12-13T21:48:43.454Z,12.57
2022-12-13T21:51:09.558Z,14.15
2022-12-13T21:53:35.684Z,14.50
2022-12-13T21:56:01.788Z,14.70
2022-12-13T21:58:28.205Z,16.65
2022-12-13T22:00:54.560Z,12.40
2022-12-13T22:03:20.686Z,13.43
2022-12-13T22:05:46.814Z,13.32
2022-12-13T22:08:12.952Z,15.57
2022-12-13T22:10:39.069Z,14.00
2022-12-13T22:13:05.174Z,16.27
2022-12-13T22:15:31.291Z,12.98
2022-12-13T22:17:57.398Z,19.52
2022-12-13T22:20:23.567Z,11.48
2022-12-13T22:22:49.704Z,12.02
2022-12-13T22:25:15.824Z,16.70
2022-12-13T22:27:41.937Z,15.60
2022-12-13T22:30:08.068Z,14.23
2022-12-13T22:32:34.199Z,17.75
2022-12-13T22:35:00.324Z,13.68
2022-12-13T22:37:26.446Z,13.13
2022-12-13T22:39:52.567Z,12.98
2022-12-13T22:42:18.697Z,12.90
2022-12-13T22:44:44.817Z,12.48
2022-12-13T22:47:10.952Z,13.30
2022-12-13T22:49:37.065Z,13.00
2022-12-13T22:52:03.187Z,14.00
2022-12-13T22:54:29.295Z,13.93
2022-12-13T22:56:55.412Z,15.73
2022-12-13T22:59:21.499Z,35.80
2022-12-13T23:01:47.845Z,14.70
2022-12-13T23:04:14.012Z,17.33
2022-12-13T23:06:40.161Z,14.95
2022-12-13T23:09:06.264Z,15.50
2022-12-13T23:11:32.376Z,18.05
2022-12-13T23:13:58.475Z,15.52
2022-12-13T23:16:24.619Z,17.00
2022-12-13T23:18:50.771Z,14.90
2022-12-13T23:21:16.880Z,14.52
2022-12-13T23:23:43.009Z,13.20
2022-12-13T23:26:09.112Z,14.90
2022-12-13T23:28:35.256Z,13.15
2022-12-13T23:31:01.397Z,13.75
2022-12-13T23:33:27.625Z,13.80
2022-12-13T23:35:53.767Z,13.57
2022-12-13T23:38:19.881Z,15.10
2022-12-13T23:40:45.995Z,12.88
2022-12-13T23:43:12.216Z,14.02
2022-12-13T23:45:38.317Z,15.00
2022-12-13T23:48:07.095Z,16.88
2022-12-13T23:50:36.215Z,17.73
2022-12-13T23:53:02.333Z,15.70
2022-12-13T23:55:28.429Z,13.20
2022-12-13T23:57:54.544Z,16.83
